Current Weather

De Kalb Taylor Muni

De Kalb, Illinois (KDKB)

Report from: Sunday, April 21, 2024 2:55 PM CDT
Current time: Sunday, April 21, 2024 3:32 PM CDT

Nearby weather – Weather history – Daily summaries
Weather forecast

Temperature12.8°C (55.0°F)
Dew point-5.6°C (21.9°F)
Winds 14 kts (7.2 m/s, 16.1 mph) West-Northwest (290°)
Wind gusts 25 kts (12.9 m/s, 28.8 mph)
Visibility10 mi. (16.1 km)
Clouds Sky clear
Altimeter30.15 in.Hg (1021 mB)
Relative humidity27 %
Density altitude-454 ft. (-139 m)
Remarks Fully automated report
Automated weather observing station with precipitation discriminator
Flight conditions Visual Meteorological Conditions
Raw dataKDKB 211955Z AUTO 29014G25KT 10SM CLR 13/M06 A3015 RMK AO2 T01281056
An error has occurred. This application may no longer respond until reloaded. Reload 🗙